Time;durP1;ratioP1;P1;durP2;ratioP2;P2;SDS_P1;SDS_P2;PMS_P1;PMS_P2;Temp;Humidity;BMP_temperature;BMP_pressure;BME280_temperature;BME280_humidity;BME280_pressure;Samples;Min_cycle;Max_cycle;Signal;HPM_P1;HPM_P2
2022/04/25 00:04:40;;;;;;;22.00;19.83;;;12.50;99.90;;;;;;10407423;28;20198;-80
2022/04/25 00:09:43;;;;;;;22.60;20.50;;;12.50;99.90;;;;;;10408221;28;20256;-79
2022/04/25 00:14:46;;;;;;;23.27;21.00;;;12.50;99.90;;;;;;10384831;28;20194;-79
2022/04/25 00:19:48;;;;;;;22.33;20.13;;;12.50;99.90;;;;;;10415354;28;20365;-80
2022/04/25 00:24:50;;;;;;;22.43;20.30;;;12.60;99.90;;;;;;10418535;28;20251;-80
2022/04/25 00:29:54;;;;;;;22.23;20.23;;;12.50;99.90;;;;;;10421748;28;20222;-82
2022/04/25 00:34:56;;;;;;;25.53;22.93;;;12.50;99.90;;;;;;10403947;28;20620;-81
2022/04/25 00:39:58;;;;;;;26.40;23.67;;;12.60;99.90;;;;;;10419336;28;20568;-81
2022/04/25 00:45:01;;;;;;;26.67;24.20;;;12.50;99.90;;;;;;10430290;28;20202;-81
2022/04/25 00:50:04;;;;;;;28.20;25.50;;;12.60;99.90;;;;;;10405873;28;20236;-80
2022/04/25 00:55:09;;;;;;;25.33;22.83;;;12.50;99.90;;;;;;10405548;28;20198;-81
2022/04/25 01:00:14;;;;;;;28.50;25.60;;;12.50;99.90;;;;;;10398390;28;20246;-81
2022/04/25 01:05:17;;;;;;;29.60;26.87;;;12.50;99.90;;;;;;10402974;28;20194;-80
2022/04/25 01:10:19;;;;;;;30.20;27.40;;;12.50;99.90;;;;;;10400019;28;20229;-80
2022/04/25 01:15:23;;;;;;;32.33;29.13;;;12.50;99.90;;;;;;10413934;28;20204;-82
2022/04/25 01:20:25;;;;;;;30.60;27.50;;;12.40;99.90;;;;;;10397925;28;20222;-82
2022/04/25 01:30:54;;;;;;;31.87;28.87;;;12.40;99.90;;;;;;10367215;28;20248;-82
2022/04/25 01:35:56;;;;;;;29.60;26.80;;;12.30;99.90;;;;;;10395276;28;20681;-81
2022/04/25 01:41:00;;;;;;;30.27;27.37;;;12.30;99.90;;;;;;10412559;28;20198;-82
2022/04/25 01:46:03;;;;;;;30.93;28.10;;;12.20;99.90;;;;;;10402964;28;20206;-82
2022/04/25 01:51:05;;;;;;;31.30;28.23;;;12.20;99.90;;;;;;10417248;28;20233;-82
2022/04/25 01:56:09;;;;;;;31.40;28.40;;;12.30;99.90;;;;;;10414429;28;20637;-82
2022/04/25 02:01:12;;;;;;;34.20;30.70;;;12.20;99.90;;;;;;10421305;28;20189;-82
2022/04/25 02:06:14;;;;;;;34.27;30.83;;;12.20;99.90;;;;;;10411033;28;20670;-80
2022/04/25 02:11:21;;;;;;;31.77;28.73;;;12.20;99.90;;;;;;10409067;28;20226;-79
2022/04/25 02:16:23;;;;;;;32.43;29.40;;;12.20;99.90;;;;;;10402388;28;20240;-80
2022/04/25 02:21:26;;;;;;;33.67;30.47;;;12.10;99.90;;;;;;10397308;28;20684;-79
2022/04/25 02:26:29;;;;;;;31.17;28.27;;;12.10;99.90;;;;;;10401574;28;20235;-83
2022/04/25 02:31:32;;;;;;;32.20;29.07;;;12.10;99.90;;;;;;10384140;28;20225;-83
2022/04/25 02:36:35;;;;;;;31.70;28.60;;;12.10;99.90;;;;;;10437464;28;20214;-83
2022/04/25 02:41:38;;;;;;;31.60;28.60;;;12.10;99.90;;;;;;10404516;28;20321;-82
2022/04/25 02:46:40;;;;;;;30.80;27.97;;;12.10;99.90;;;;;;10390793;28;20222;-83
2022/04/25 02:51:43;;;;;;;33.17;29.87;;;12.10;99.90;;;;;;10396436;28;20288;-81
2022/04/25 02:56:47;;;;;;;33.53;30.27;;;12.10;99.90;;;;;;10409826;28;20222;-80
2022/04/25 03:01:50;;;;;;;31.97;28.93;;;12.10;99.90;;;;;;10408054;28;20198;-80
2022/04/25 03:06:53;;;;;;;29.53;26.77;;;12.10;99.90;;;;;;10417110;28;20233;-80
2022/04/25 03:11:58;;;;;;;33.10;29.90;;;12.10;99.90;;;;;;10419094;28;20198;-80
2022/04/25 03:17:00;;;;;;;32.23;29.03;;;12.00;99.90;;;;;;10418184;28;20222;-80
2022/04/25 03:22:03;;;;;;;31.70;28.60;;;12.00;99.90;;;;;;10418664;28;20298;-80
2022/04/25 03:27:06;;;;;;;29.37;26.43;;;12.00;99.90;;;;;;10416717;28;20269;-80
2022/04/25 03:32:08;;;;;;;31.83;28.70;;;11.90;99.90;;;;;;10432834;28;20202;-81
2022/04/25 03:37:13;;;;;;;32.90;29.70;;;11.80;99.90;;;;;;10404526;28;20264;-82
2022/04/25 03:42:16;;;;;;;33.97;30.67;;;11.70;99.90;;;;;;10421256;28;20209;-81
2022/04/25 03:47:18;;;;;;;33.90;30.70;;;11.70;99.90;;;;;;10418758;28;20217;-81
2022/04/25 03:52:21;;;;;;;31.73;28.70;;;11.60;99.90;;;;;;10434264;28;20325;-80
2022/04/25 03:57:24;;;;;;;31.67;28.67;;;11.60;99.90;;;;;;10408445;28;20264;-80
2022/04/25 04:02:26;;;;;;;31.73;28.70;;;11.60;99.90;;;;;;10398867;28;20198;-80
2022/04/25 04:07:28;;;;;;;31.20;28.10;;;11.50;99.90;;;;;;10402291;28;20245;-80
2022/04/25 04:12:34;;;;;;;34.97;31.40;;;11.40;99.90;;;;;;10405079;28;20233;-80
2022/04/25 04:17:36;;;;;;;32.87;29.60;;;11.30;99.90;;;;;;10406862;28;20213;-80
2022/04/25 04:22:38;;;;;;;32.33;29.30;;;11.20;99.90;;;;;;10402835;28;20728;-80
2022/04/25 04:27:48;;;;;;;31.90;28.80;;;11.30;99.90;;;;;;10399174;28;20244;-80
2022/04/25 04:32:52;;;;;;;31.13;28.13;;;11.30;99.90;;;;;;10395406;28;20197;-81
2022/04/25 04:37:55;;;;;;;31.17;28.13;;;11.30;99.90;;;;;;10413167;28;20625;-81
2022/04/25 04:42:59;;;;;;;32.00;29.03;;;11.30;99.90;;;;;;10393855;28;20206;-80
2022/04/25 04:48:01;;;;;;;31.70;28.53;;;11.20;99.90;;;;;;10402639;28;20638;-83
2022/04/25 04:53:03;;;;;;;30.30;27.40;;;11.30;99.90;;;;;;10397833;28;20194;-82
2022/04/25 04:58:07;;;;;;;31.00;28.00;;;11.30;99.90;;;;;;10390567;28;20206;-83
2022/04/25 05:03:09;;;;;;;32.10;28.80;;;11.30;99.90;;;;;;10412676;28;20252;-82
2022/04/25 05:08:11;;;;;;;32.30;29.03;;;11.30;99.90;;;;;;10429256;28;20218;-81
2022/04/25 05:13:16;;;;;;;30.87;27.87;;;11.40;99.90;;;;;;10413361;28;20198;-81
2022/04/25 05:18:19;;;;;;;31.67;28.57;;;11.40;99.90;;;;;;10395797;28;20577;-83
2022/04/25 05:23:21;;;;;;;31.23;28.20;;;11.50;99.90;;;;;;10405512;28;20198;-83
2022/04/25 05:28:26;;;;;;;31.33;28.27;;;11.50;99.90;;;;;;10445515;22;20256;-80
2022/04/25 05:33:28;;;;;;;32.07;28.80;;;11.60;99.90;;;;;;10469534;28;20193;-78
2022/04/25 05:38:30;;;;;;;32.37;29.17;;;11.60;99.90;;;;;;10451191;28;20256;-79
2022/04/25 05:43:34;;;;;;;35.90;32.33;;;11.70;99.90;;;;;;10415642;28;20198;-77
2022/04/25 05:53:56;;;;;;;34.13;30.90;;;12.10;99.90;;;;;;10414015;28;20291;-80
2022/04/25 05:59:00;;;;;;;29.37;26.50;;;12.20;99.90;;;;;;10419775;28;20745;-77
2022/04/25 06:04:02;;;;;;;35.00;31.40;;;12.40;99.90;;;;;;10446065;28;20190;-77
2022/04/25 06:09:05;;;;;;;30.30;27.40;;;12.50;99.90;;;;;;10411797;28;20312;-77
2022/04/25 06:14:08;;;;;;;30.30;27.40;;;12.60;99.90;;;;;;10447248;28;20226;-78
2022/04/25 06:19:11;;;;;;;31.10;27.97;;;12.90;99.90;;;;;;10410811;28;20209;-78
2022/04/25 06:24:13;;;;;;;29.60;26.80;;;13.00;99.90;;;;;;10446597;28;20193;-77
2022/04/25 06:29:16;;;;;;;28.50;25.87;;;13.10;99.90;;;;;;10417691;28;20218;-79
2022/04/25 06:34:18;;;;;;;28.60;25.90;;;13.20;99.90;;;;;;10427288;28;20233;-78
2022/04/25 06:39:21;;;;;;;28.50;25.77;;;13.30;99.90;;;;;;10431638;28;20674;-79
2022/04/25 06:44:24;;;;;;;28.80;26.10;;;13.50;99.90;;;;;;10410065;28;20248;-79
2022/04/25 06:49:28;;;;;;;28.37;25.57;;;13.60;99.90;;;;;;10389483;28;20218;-79
2022/04/25 06:54:31;;;;;;;26.10;23.70;;;13.60;99.90;;;;;;10408293;28;20198;-79
2022/04/25 06:59:35;;;;;;;28.87;26.17;;;13.70;99.90;;;;;;10413712;28;20697;-77
2022/04/25 07:04:37;;;;;;;26.67;24.30;;;13.90;99.90;;;;;;10407280;28;20198;-77
2022/04/25 07:09:39;;;;;;;27.30;24.70;;;14.00;99.90;;;;;;10406484;28;20221;-77
2022/04/25 07:14:43;;;;;;;21.93;20.03;;;14.00;99.90;;;;;;10404463;28;20236;-77
2022/04/25 07:19:45;;;;;;;23.70;21.60;;;14.00;99.90;;;;;;10409737;28;20224;-77
2022/04/25 07:30:09;;;;;;;21.60;19.60;;;14.10;99.90;;;;;;10408336;28;20217;-78
2022/04/25 07:35:12;;;;;;;21.27;19.33;;;14.20;99.90;;;;;;10407665;28;20268;-76
2022/04/25 07:40:14;;;;;;;23.63;21.53;;;14.50;99.90;;;;;;10386054;28;20706;-76
2022/04/25 07:45:17;;;;;;;23.23;21.23;;;14.80;99.90;;;;;;10406425;28;20290;-78
2022/04/25 07:50:23;;;;;;;22.50;20.50;;;15.10;99.90;;;;;;10408119;28;20230;-77
2022/04/25 07:55:25;;;;;;;23.90;21.67;;;15.20;99.90;;;;;;10410252;28;20190;-78
2022/04/25 08:00:28;;;;;;;19.60;17.90;;;15.40;99.90;;;;;;10401682;28;20225;-78
2022/04/25 08:05:31;;;;;;;20.23;18.43;;;15.60;99.90;;;;;;10388497;28;20297;-77
2022/04/25 08:10:33;;;;;;;18.70;17.10;;;15.50;99.90;;;;;;10405622;28;20594;-78
2022/04/25 08:20:56;;;;;;;18.90;17.10;;;15.50;99.90;;;;;;10406691;28;20213;-77
2022/04/25 08:25:58;;;;;;;19.97;18.17;;;15.50;99.90;;;;;;10407717;28;20396;-78
2022/04/25 08:31:02;;;;;;;17.40;15.90;;;15.70;99.90;;;;;;10407236;28;20638;-79
2022/04/25 08:36:04;;;;;;;19.47;16.17;;;16.00;99.90;;;;;;10400237;28;20683;-78
2022/04/25 08:41:07;;;;;;;19.23;17.50;;;16.00;99.90;;;;;;10395435;28;20233;-76
2022/04/25 08:46:11;;;;;;;19.33;17.43;;;15.90;99.90;;;;;;10393692;28;20587;-79
2022/04/25 08:51:15;;;;;;;18.73;17.10;;;15.60;99.90;;;;;;10396303;28;20214;-76
2022/04/25 08:56:19;;;;;;;20.07;18.37;;;15.50;99.90;;;;;;10400601;28;20202;-76
2022/04/25 09:01:23;;;;;;;20.37;18.43;;;15.40;99.90;;;;;;10394149;28;20202;-77
2022/04/25 09:06:25;;;;;;;19.83;18.20;;;15.30;99.90;;;;;;10398518;28;20198;-77
2022/04/25 09:16:49;;;;;;;20.67;18.90;;;15.30;99.90;;;;;;10388045;28;20214;-77
2022/04/25 09:21:51;;;;;;;19.37;17.67;;;15.40;99.90;;;;;;10388619;28;20703;-78
2022/04/25 09:27:10;;;;;;;19.87;18.07;;;15.50;99.90;;;;;;10395029;28;20635;-77
2022/04/25 09:32:14;;;;;;;20.00;18.30;;;15.80;99.90;;;;;;10388510;28;20222;-78
2022/04/25 09:37:17;;;;;;;18.60;17.00;;;15.80;99.90;;;;;;10390305;28;20698;-77
2022/04/25 09:42:28;;;;;;;17.97;16.50;;;15.80;99.90;;;;;;10392856;28;20248;-78
2022/04/25 09:47:33;;;;;;;18.10;16.40;;;15.80;99.90;;;;;;10400050;28;20592;-76
2022/04/25 09:52:37;;;;;;;18.47;16.87;;;16.00;99.90;;;;;;10401726;28;20225;-77
2022/04/25 09:57:39;;;;;;;17.07;15.70;;;16.10;99.90;;;;;;10396851;28;20264;-76
2022/04/25 10:02:43;;;;;;;18.40;16.80;;;16.20;99.90;;;;;;10408398;28;20212;-77
2022/04/25 10:07:45;;;;;;;16.57;15.17;;;16.70;99.90;;;;;;10403699;28;20217;-78
2022/04/25 10:12:47;;;;;;;15.63;14.33;;;17.20;99.90;;;;;;10413727;28;20222;-77
2022/04/25 10:17:52;;;;;;;16.23;14.93;;;17.40;99.90;;;;;;10401720;28;20380;-78
2022/04/25 10:22:55;;;;;;;17.03;15.53;;;17.40;99.90;;;;;;10405908;28;20220;-78
2022/04/25 10:27:58;;;;;;;16.00;14.70;;;17.40;99.90;;;;;;10420047;28;20230;-78
2022/04/25 10:33:16;;;;;;;15.03;13.83;;;17.40;99.90;;;;;;10411288;28;20222;-79
2022/04/25 10:38:50;;;;;;;16.50;15.10;;;17.40;99.90;;;;;;10413408;28;20217;-77
2022/04/25 10:49:31;;;;;;;15.83;14.57;;;17.40;99.90;;;;;;10355341;28;20229;-78
2022/04/25 10:54:48;;;;;;;16.70;15.20;;;17.40;99.90;;;;;;10453317;28;20208;-77
2022/04/25 10:59:50;;;;;;;16.87;15.30;;;17.30;99.90;;;;;;10399063;28;20886;-76
2022/04/25 11:05:25;;;;;;;17.93;16.33;;;17.20;99.90;;;;;;10448849;28;20289;-79
2022/04/25 11:10:46;;;;;;;15.60;14.37;;;17.10;99.90;;;;;;10434229;28;20216;-78
2022/04/25 11:15:50;;;;;;;16.00;14.70;;;17.20;99.90;;;;;;10440622;28;20194;-80
2022/04/25 11:20:56;;;;;;;17.73;16.13;;;17.30;99.90;;;;;;10439961;28;20638;-78
2022/04/25 11:26:00;;;;;;;16.47;14.97;;;17.40;99.90;;;;;;10447099;28;20221;-80
2022/04/25 11:31:23;;;;;;;15.40;14.10;;;17.60;99.90;;;;;;10437850;28;20218;-79
2022/04/25 11:36:25;;;;;;;16.20;14.80;;;17.70;99.90;;;;;;10438330;28;20256;-77
2022/04/25 11:41:30;;;;;;;16.00;14.70;;;17.60;99.90;;;;;;10436074;28;20208;-78
2022/04/25 11:46:34;;;;;;;17.60;16.00;;;17.50;99.90;;;;;;10440373;28;20206;-78
2022/04/25 11:51:37;;;;;;;16.17;14.80;;;17.30;99.90;;;;;;10414957;28;20642;-77
2022/04/25 11:56:41;;;;;;;16.57;15.17;;;17.10;99.90;;;;;;10415463;28;20221;-80
2022/04/25 12:01:47;;;;;;;17.77;16.27;;;16.90;99.90;;;;;;10420066;28;20228;-80
2022/04/25 12:06:51;;;;;;;19.20;17.60;;;16.60;99.90;;;;;;10399432;28;20222;-79
2022/04/25 12:17:14;;;;;;;19.40;17.70;;;15.90;99.90;;;;;;10421544;28;20249;-79
2022/04/25 12:22:23;;;;;;;23.97;21.90;;;15.40;99.90;;;;;;10416321;28;20717;-82
2022/04/25 12:27:26;;;;;;;25.90;23.60;;;15.20;99.90;;;;;;10384461;28;20228;-80
2022/04/25 12:32:28;;;;;;;25.73;23.40;;;15.00;99.90;;;;;;10406609;28;20284;-81
2022/04/25 12:37:40;;;;;;;25.70;23.13;;;15.00;99.90;;;;;;10415011;28;20218;-81
2022/04/25 12:42:51;;;;;;;23.87;21.80;;;15.00;99.90;;;;;;10404504;28;20190;-77
2022/04/25 12:47:59;;;;;;;25.50;23.20;;;15.00;99.90;;;;;;10415340;28;20228;-80
2022/04/25 12:53:04;;;;;;;23.63;21.63;;;15.20;99.90;;;;;;10391314;28;20578;-80
2022/04/25 12:58:08;;;;;;;24.57;22.30;;;15.30;99.90;;;;;;10410855;28;20213;-81
2022/04/25 13:03:10;;;;;;;24.20;22.10;;;15.20;99.90;;;;;;10408816;28;20205;-80
2022/04/25 13:08:12;;;;;;;23.90;21.70;;;15.20;99.90;;;;;;10396847;28;20682;-80
2022/04/25 13:13:19;;;;;;;23.67;21.57;;;15.30;99.90;;;;;;10382052;28;21550;-81
2022/04/25 13:18:21;;;;;;;23.57;21.47;;;15.50;99.90;;;;;;10411348;28;20222;-78
2022/04/25 13:23:24;;;;;;;21.50;19.70;;;15.50;99.90;;;;;;10408351;28;20277;-78
2022/04/25 13:28:30;;;;;;;16.63;15.33;;;15.70;99.90;;;;;;10407324;28;20221;-77
2022/04/25 13:33:32;;;;;;;15.90;14.53;;;16.00;99.90;;;;;;10400310;28;20304;-78
2022/04/25 13:38:35;;;;;;;16.17;14.87;;;16.20;99.90;;;;;;10403601;28;20304;-77
2022/04/25 13:43:39;;;;;;;16.20;14.80;;;16.50;99.90;;;;;;10402707;28;20198;-77
2022/04/25 13:48:41;;;;;;;18.20;16.60;;;16.70;99.90;;;;;;10404630;28;20588;-76
2022/04/25 13:53:44;;;;;;;18.40;16.70;;;16.90;99.90;;;;;;10402583;28;20305;-77
2022/04/25 13:58:47;;;;;;;16.33;14.87;;;17.00;99.90;;;;;;10406138;28;20225;-78
2022/04/25 14:03:52;;;;;;;16.70;15.30;;;17.10;99.90;;;;;;10407467;28;20232;-77
2022/04/25 14:08:54;;;;;;;23.20;16.80;;;17.10;99.90;;;;;;10403893;28;20218;-78
2022/04/25 14:13:58;;;;;;;15.40;14.10;;;17.00;99.90;;;;;;10412644;28;20658;-78
2022/04/25 14:19:01;;;;;;;13.10;12.00;;;16.90;99.90;;;;;;10411542;28;20268;-78
2022/04/25 14:24:03;;;;;;;14.00;12.80;;;16.80;99.90;;;;;;10409237;28;20272;-77
2022/04/25 14:29:07;;;;;;;11.00;10.10;;;16.80;99.90;;;;;;10405545;28;20217;-78
2022/04/25 14:34:09;;;;;;;10.97;10.00;;;16.90;99.90;;;;;;10403638;28;20212;-78
2022/04/25 14:39:11;;;;;;;10.10;9.37;;;17.10;99.90;;;;;;10400873;28;20225;-77
2022/04/25 14:44:15;;;;;;;11.60;10.70;;;17.00;99.90;;;;;;10395417;28;20316;-76
2022/04/25 14:54:20;;;;;;;10.60;9.70;;;16.80;99.90;;;;;;10418035;28;20270;-77
2022/04/25 14:54:40;;;;;;;11.40;10.50;;;16.40;99.90;;;;;;10429544;28;20233;-77
2022/04/25 14:59:44;;;;;;;10.47;9.57;;;16.10;99.90;;;;;;10430241;28;20225;-79
2022/04/25 15:04:46;;;;;;;9.37;8.60;;;15.70;99.90;;;;;;10431665;28;20194;-79
2022/04/25 15:09:48;;;;;;;7.77;7.10;;;15.50;99.90;;;;;;10426331;28;20236;-77
2022/04/25 15:14:51;;;;;;;6.93;6.43;;;15.20;99.90;;;;;;10431602;28;20232;-78
2022/04/25 15:19:54;;;;;;;7.20;6.60;;;15.10;99.90;;;;;;10426397;28;20232;-78
2022/04/25 15:24:56;;;;;;;7.00;6.50;;;15.10;99.90;;;;;;10432229;28;20374;-79
2022/04/25 15:30:00;;;;;;;8.27;7.63;;;14.90;99.90;;;;;;10419553;28;20306;-78
2022/04/25 15:35:03;;;;;;;7.13;6.53;;;14.80;99.90;;;;;;10423838;28;20207;-79
2022/04/25 15:40:06;;;;;;;7.10;6.57;;;14.90;99.90;;;;;;10433136;28;20221;-78
2022/04/25 15:45:12;;;;;;;7.27;6.77;;;15.00;99.90;;;;;;10413040;28;20198;-78
2022/04/25 15:50:14;;;;;;;7.97;7.27;;;15.00;99.90;;;;;;10422971;28;20302;-78
2022/04/25 16:00:37;;;;;;;7.07;6.57;;;15.20;99.90;;;;;;10431298;28;20205;-78
2022/04/25 16:05:41;;;;;;;7.07;6.57;;;15.20;99.90;;;;;;10430509;28;20289;-78
2022/04/25 16:10:43;;;;;;;7.17;6.67;;;15.20;99.90;;;;;;10427262;28;20233;-79
2022/04/25 16:15:47;;;;;;;8.13;7.53;;;15.10;99.90;;;;;;10436911;28;20201;-78
2022/04/25 16:20:50;;;;;;;7.97;7.27;;;15.10;99.90;;;;;;10427873;28;20546;-79
2022/04/25 16:25:55;;;;;;;8.70;8.10;;;15.00;99.90;;;;;;10434356;28;20202;-80
2022/04/25 16:30:58;;;;;;;8.87;8.20;;;15.00;99.90;;;;;;10424311;28;20325;-80
2022/04/25 16:36:01;;;;;;;7.80;7.20;;;15.00;99.90;;;;;;10429573;28;20197;-77
2022/04/25 16:41:03;;;;;;;7.93;7.33;;;15.10;99.90;;;;;;10446490;28;20271;-80
2022/04/25 16:46:06;;;;;;;7.83;7.10;;;15.00;99.90;;;;;;10436940;28;20201;-80
2022/04/25 16:51:08;;;;;;;8.93;8.23;;;15.10;99.90;;;;;;10429469;28;20241;-81
2022/04/25 16:56:11;;;;;;;9.67;8.97;;;15.00;99.90;;;;;;10439912;28;20237;-80
2022/04/25 17:01:14;;;;;;;8.73;8.00;;;15.00;99.90;;;;;;10430746;28;20189;-81
2022/04/25 17:06:16;;;;;;;7.60;6.93;;;15.00;99.90;;;;;;10440268;28;20208;-81
2022/04/25 17:11:19;;;;;;;7.40;6.90;;;15.00;99.90;;;;;;10427871;28;20216;-79
2022/04/25 17:16:22;;;;;;;7.33;6.67;;;15.00;99.90;;;;;;10442181;28;20233;-81
2022/04/25 17:21:24;;;;;;;6.27;5.87;;;15.00;99.90;;;;;;10427348;28;20506;-81
2022/04/25 17:26:27;;;;;;;6.87;6.37;;;15.00;99.90;;;;;;10448776;28;124382;-81
